createdAt,value
2018-02-15T00:01:08.689Z,70.01
2018-02-15T00:02:19.555Z,69.53
2018-02-15T00:03:29.723Z,69.91
2018-02-15T00:04:40.064Z,70.2
2018-02-15T00:05:50.208Z,70.29
2018-02-15T00:07:00.324Z,70.2
2018-02-15T00:08:10.522Z,70.57
2018-02-15T00:09:20.643Z,70.29
2018-02-15T00:10:30.770Z,70.29
2018-02-15T00:11:40.679Z,70.39
2018-02-15T00:12:50.797Z,70.39
2018-02-15T00:14:00.920Z,70.39
2018-02-15T00:15:11.259Z,70.48
2018-02-15T00:16:21.227Z,70.29
2018-02-15T00:17:31.335Z,70.39
2018-02-15T00:18:41.598Z,70.48
2018-02-15T00:19:51.808Z,70.48
2018-02-15T00:21:01.930Z,70.29
2018-02-15T00:22:12.214Z,70.39
2018-02-15T00:23:23.431Z,70.29
2018-02-15T00:24:33.595Z,70.57
2018-02-15T00:25:43.841Z,70.48
2018-02-15T00:26:54.084Z,70.39
2018-02-15T00:28:04.258Z,70.39
2018-02-15T00:29:14.127Z,70.01
2018-02-15T00:30:24.248Z,70.29
2018-02-15T00:31:34.454Z,70.48
2018-02-15T00:32:44.306Z,70.48
2018-02-15T00:33:54.438Z,70.29
2018-02-15T00:35:04.356Z,70.39
2018-02-15T00:36:14.709Z,70.29
2018-02-15T00:37:24.818Z,70.39
2018-02-15T00:38:34.936Z,71.14
2018-02-15T00:39:45.101Z,70.95
2018-02-15T00:40:54.955Z,70.92
2018-02-15T00:42:05.123Z,71.04
2018-02-15T00:43:15.333Z,71.14
2018-02-15T00:44:25.444Z,70.92
2018-02-15T00:45:35.594Z,71.23
2018-02-15T00:46:45.827Z,71.33
2018-02-15T00:47:55.953Z,71.42
2018-02-15T00:49:06.075Z,70.86
2018-02-15T00:50:16.200Z,70.86
2018-02-15T00:51:26.320Z,71.23
2018-02-15T00:52:36.519Z,71.14
2018-02-15T00:53:46.695Z,71.52
2018-02-15T00:54:56.539Z,71.52
2018-02-15T00:56:06.395Z,71.33
2018-02-15T00:57:16.510Z,71.42
2018-02-15T00:58:27.600Z,71.9
2018-02-15T00:59:37.945Z,71.71
2018-02-15T01:00:48.061Z,71.52
2018-02-15T01:01:58.351Z,71.61
2018-02-15T01:03:08.570Z,71.61
2018-02-15T01:04:18.705Z,71.61
2018-02-15T01:05:29.780Z,71.67
2018-02-15T01:06:39.663Z,71.61
2018-02-15T01:07:49.857Z,71.52
2018-02-15T01:09:00.068Z,71.48
2018-02-15T01:10:10.351Z,71.48
2018-02-15T01:11:20.502Z,71.48
2018-02-15T01:12:30.619Z,71.48
2018-02-15T01:13:40.752Z,71.77
2018-02-15T01:14:50.867Z,71.77
2018-02-15T01:16:01.700Z,72.43
2018-02-15T01:17:11.824Z,71.95
2018-02-15T01:18:21.717Z,71.86
2018-02-15T01:19:31.844Z,71.95
2018-02-15T01:20:41.961Z,71.95
2018-02-15T01:21:52.100Z,71.77
2018-02-15T01:23:02.243Z,72.33
2018-02-15T01:24:13.328Z,72.24
2018-02-15T01:25:23.323Z,72.14
2018-02-15T01:26:33.457Z,72.24
2018-02-15T01:27:43.737Z,72.43
2018-02-15T01:28:53.595Z,72.43
2018-02-15T01:30:03.713Z,72.43
2018-02-15T01:31:13.884Z,72.62
2018-02-15T01:32:24.001Z,72.71
2018-02-15T01:33:34.324Z,72.62
2018-02-15T01:34:44.458Z,72.62
2018-02-15T01:35:55.551Z,72.99
2018-02-15T01:37:05.698Z,73.28
2018-02-15T01:38:15.857Z,73.18
2018-02-15T01:39:25.988Z,72.9
2018-02-15T01:40:36.099Z,73.18
2018-02-15T01:41:45.905Z,73.09
2018-02-15T01:42:56.009Z,73.37
2018-02-15T01:44:06.137Z,73.18
2018-02-15T01:45:16.271Z,73.56
2018-02-15T01:46:26.410Z,73.37
2018-02-15T01:47:36.560Z,73.47
2018-02-15T01:48:46.455Z,73.47
2018-02-15T01:49:56.600Z,73.18
2018-02-15T01:51:06.722Z,73.66
2018-02-15T01:52:16.627Z,73.47
2018-02-15T01:53:26.721Z,73.18
2018-02-15T01:54:36.881Z,73.47
2018-02-15T01:55:47.179Z,73.18
2018-02-15T01:56:57.056Z,73.28
2018-02-15T01:58:07.147Z,73.37
2018-02-15T01:59:16.890Z,73.66
2018-02-15T02:00:28.050Z,73.47
2018-02-15T02:01:37.908Z,73.75
2018-02-15T02:02:48.019Z,73.47
2018-02-15T02:03:59.128Z,73.37
2018-02-15T02:05:09.240Z,73.47
2018-02-15T02:06:19.413Z,73.18
2018-02-15T02:07:29.537Z,73.18
2018-02-15T02:08:39.698Z,73.18
2018-02-15T02:09:49.803Z,73.18
2018-02-15T02:11:00.028Z,72.8
2018-02-15T02:12:10.131Z,73.09
2018-02-15T02:13:20.341Z,72.99
2018-02-15T02:14:30.517Z,73.28
2018-02-15T02:15:40.660Z,73.28
2018-02-15T02:16:50.788Z,73.37
2018-02-15T02:18:00.890Z,73.56
2018-02-15T02:19:11.000Z,73.28
2018-02-15T02:20:21.113Z,73.47
2018-02-15T02:21:31.365Z,73.18
2018-02-15T02:22:41.480Z,73.18
2018-02-15T02:23:51.458Z,73.56
2018-02-15T02:25:01.668Z,73.85
2018-02-15T02:26:11.797Z,73.66
2018-02-15T02:27:22.029Z,73.66
2018-02-15T02:28:31.990Z,73.47
2018-02-15T02:29:42.132Z,73.47
2018-02-15T02:30:51.772Z,73.47
2018-02-15T02:32:01.889Z,74.04
2018-02-15T02:33:12.112Z,73.37
2018-02-15T02:34:21.922Z,73.47
2018-02-15T02:35:31.807Z,73.85
2018-02-15T02:36:41.975Z,73.75
2018-02-15T02:37:52.147Z,74.13
2018-02-15T02:39:02.287Z,74.22
2018-02-15T02:40:12.391Z,74.13
2018-02-15T02:41:22.494Z,73.85
2018-02-15T02:42:32.595Z,73.85
2018-02-15T02:43:42.796Z,73.75
2018-02-15T02:44:52.989Z,73.75
2018-02-15T02:46:03.130Z,74.13
2018-02-15T02:47:13.034Z,74.13
2018-02-15T02:48:23.276Z,73.85
2018-02-15T02:49:33.475Z,73.85
2018-02-15T02:50:43.682Z,73.85
2018-02-15T02:51:53.923Z,73.85
2018-02-15T02:53:03.781Z,73.37
2018-02-15T02:54:13.908Z,73.94
2018-02-15T02:55:23.810Z,73.94
2018-02-15T02:56:33.922Z,74.04
2018-02-15T02:57:44.021Z,74.04
2018-02-15T02:58:54.141Z,74.04
2018-02-15T03:00:04.261Z,74.04
2018-02-15T03:01:14.375Z,73.94
2018-02-15T03:02:24.511Z,73.85
2018-02-15T03:03:34.645Z,74.04
2018-02-15T03:04:44.773Z,73.85
2018-02-15T03:05:54.617Z,73.85
2018-02-15T03:07:04.483Z,73.85
2018-02-15T03:08:14.611Z,74.04
2018-02-15T03:09:24.249Z,74.28
2018-02-15T03:10:34.417Z,74.38
2018-02-15T03:11:44.553Z,74.38
2018-02-15T03:12:54.787Z,74.6
2018-02-15T03:14:04.639Z,74.41
2018-02-15T03:15:14.902Z,74.95
2018-02-15T03:16:25.057Z,75.04
2018-02-15T03:17:35.159Z,75.04
2018-02-15T03:18:45.043Z,74.76
2018-02-15T03:19:54.896Z,74.79
2018-02-15T03:21:05.020Z,74.79
2018-02-15T03:22:15.150Z,74.88
2018-02-15T03:23:25.263Z,75.07
2018-02-15T03:24:35.389Z,74.51
2018-02-15T03:25:45.549Z,74.6
2018-02-15T03:26:55.673Z,74.6
2018-02-15T03:28:05.872Z,74.6
2018-02-15T03:29:16.033Z,74.38
2018-02-15T03:30:26.165Z,74.85
2018-02-15T03:31:36.452Z,74.66
2018-02-15T03:32:46.313Z,74.47
2018-02-15T03:33:56.239Z,74.76
2018-02-15T03:35:06.373Z,74.85
2018-02-15T03:36:16.493Z,74.76
2018-02-15T03:37:26.655Z,75.04
2018-02-15T03:38:36.944Z,74.76
2018-02-15T03:39:47.065Z,74.66
2018-02-15T03:40:57.471Z,74.76
2018-02-15T03:42:07.583Z,74.76
2018-02-15T03:43:17.840Z,74.95
2018-02-15T03:44:29.063Z,75.13
2018-02-15T03:45:39.223Z,74.95
2018-02-15T03:46:49.434Z,74.98
2018-02-15T03:47:59.631Z,74.66
2018-02-15T03:49:09.813Z,74.69
2018-02-15T03:50:20.054Z,74.79
2018-02-15T03:51:30.168Z,74.98
2018-02-15T03:52:40.317Z,74.79
2018-02-15T03:53:50.512Z,74.66
2018-02-15T03:55:00.656Z,74.76
2018-02-15T03:56:10.523Z,74.76
2018-02-15T03:57:20.664Z,74.76
2018-02-15T03:58:31.766Z,74.79
2018-02-15T03:59:41.947Z,74.6
2018-02-15T04:00:52.082Z,74.57
2018-02-15T04:02:02.210Z,74.76
2018-02-15T04:03:12.440Z,74.79
2018-02-15T04:04:22.565Z,74.76
2018-02-15T04:05:32.928Z,74.76
2018-02-15T04:06:43.245Z,74.69
2018-02-15T04:07:53.465Z,74.79
2018-02-15T04:09:03.667Z,74.98
2018-02-15T04:10:13.564Z,74.79
2018-02-15T04:11:23.673Z,74.69
2018-02-15T04:12:33.775Z,74.6
2018-02-15T04:13:43.887Z,74.69
2018-02-15T04:14:54.038Z,74.6
2018-02-15T04:16:04.135Z,74.76
2018-02-15T04:17:14.234Z,74.32
2018-02-15T04:18:24.371Z,74.57
2018-02-15T04:19:34.592Z,74.76
2018-02-15T04:20:44.799Z,75.04
2018-02-15T04:21:54.675Z,74.95
2018-02-15T04:23:04.831Z,75.04
2018-02-15T04:24:15.025Z,74.76
2018-02-15T04:25:25.201Z,74.95
2018-02-15T04:26:35.342Z,75.04
2018-02-15T04:27:45.199Z,75.23
2018-02-15T04:28:55.411Z,75.23
2018-02-15T04:30:05.750Z,75.6
2018-02-15T04:31:15.614Z,75.13
2018-02-15T04:32:25.458Z,75.23
2018-02-15T04:33:35.555Z,74.95
2018-02-15T04:34:46.645Z,75.13
2018-02-15T04:35:56.758Z,75.51
2018-02-15T04:37:07.053Z,75.32
2018-02-15T04:38:17.208Z,75.32
2018-02-15T04:39:27.608Z,75.23
2018-02-15T04:40:37.463Z,75.51
2018-02-15T04:41:48.544Z,75.42
2018-02-15T04:42:58.467Z,75.32
2018-02-15T04:44:08.600Z,75.04
2018-02-15T04:45:18.393Z,75.51
2018-02-15T04:46:28.499Z,75.13
2018-02-15T04:47:38.615Z,75.04
2018-02-15T04:48:48.787Z,75.32
2018-02-15T04:49:58.911Z,75.32
2018-02-15T04:51:08.647Z,75.32
2018-02-15T04:52:18.628Z,75.13
2018-02-15T04:53:28.545Z,75.32
2018-02-15T04:54:38.741Z,75.32
2018-02-15T04:55:48.899Z,75.51
2018-02-15T04:56:58.645Z,75.42
2018-02-15T04:58:08.759Z,75.6
2018-02-15T04:59:18.862Z,75.51
2018-02-15T05:00:29.023Z,75.51
2018-02-15T05:01:39.147Z,75.42
2018-02-15T05:02:49.256Z,75.6
2018-02-15T05:03:59.375Z,75.6
2018-02-15T05:05:09.227Z,75.32
2018-02-15T05:06:19.355Z,75.6
2018-02-15T05:07:29.470Z,75.7
2018-02-15T05:08:39.590Z,75.79
2018-02-15T05:09:49.695Z,75.13
2018-02-15T05:10:59.639Z,75.6
2018-02-15T05:12:09.884Z,75.6
2018-02-15T05:13:21.080Z,75.42
2018-02-15T05:14:31.248Z,75.42
2018-02-15T05:15:41.402Z,75.13
2018-02-15T05:16:51.789Z,75.45
2018-02-15T05:18:01.984Z,75.23
2018-02-15T05:19:12.197Z,75.51
2018-02-15T05:20:23.300Z,75.42
2018-02-15T05:21:33.190Z,75.6
2018-02-15T05:22:43.276Z,75.51
2018-02-15T05:23:53.459Z,75.23
2018-02-15T05:25:03.322Z,75.42
2018-02-15T05:26:13.431Z,75.42
2018-02-15T05:27:23.285Z,75.32
2018-02-15T05:28:33.489Z,75.42
2018-02-15T05:29:43.624Z,75.23
2018-02-15T05:30:53.754Z,75.32
2018-02-15T05:32:03.879Z,75.6
2018-02-15T05:33:13.779Z,75.6
2018-02-15T05:34:23.998Z,75.6
2018-02-15T05:35:34.133Z,75.32
2018-02-15T05:36:44.246Z,75.51
2018-02-15T05:37:54.345Z,75.13
2018-02-15T05:39:04.482Z,75.23
2018-02-15T05:40:14.585Z,75.13
2018-02-15T05:41:24.444Z,75.13
2018-02-15T05:42:34.362Z,75.32
2018-02-15T05:43:44.462Z,75.23
2018-02-15T05:44:54.581Z,75.51
2018-02-15T05:46:05.395Z,75.23
2018-02-15T05:47:15.548Z,75.36
2018-02-15T05:48:25.736Z,75.26
2018-02-15T05:49:35.614Z,75.45
2018-02-15T05:50:45.776Z,75.45
2018-02-15T05:51:55.877Z,75.64
2018-02-15T05:53:05.998Z,75.64
2018-02-15T05:54:16.229Z,75.45
2018-02-15T05:55:26.506Z,75.26
2018-02-15T05:56:36.701Z,75.17
2018-02-15T05:57:47.000Z,75.07
2018-02-15T05:58:57.185Z,74.79
2018-02-15T06:00:07.324Z,74.79
2018-02-15T06:01:17.427Z,74.79
2018-02-15T06:02:27.573Z,74.79
2018-02-15T06:03:37.721Z,75.26
2018-02-15T06:04:48.286Z,74.79
2018-02-15T06:05:58.476Z,74.79
2018-02-15T06:07:08.670Z,74.6
2018-02-15T06:08:18.927Z,75.07
2018-02-15T06:09:29.089Z,75.26
2018-02-15T06:10:39.395Z,75.23
2018-02-15T06:11:49.263Z,75.51
2018-02-15T06:12:59.372Z,75.45
2018-02-15T06:14:09.496Z,75.42
2018-02-15T06:15:19.622Z,75.51
2018-02-15T06:16:29.752Z,75.32
2018-02-15T06:17:39.323Z,75.23
2018-02-15T06:18:49.468Z,75.6
2018-02-15T06:19:59.777Z,75.23
2018-02-15T06:21:09.977Z,75.23
2018-02-15T06:22:19.884Z,75.45
2018-02-15T06:23:29.763Z,75.6
2018-02-15T06:24:39.934Z,75.23
2018-02-15T06:25:50.078Z,75.13
2018-02-15T06:26:59.932Z,75.42
2018-02-15T06:28:10.130Z,75.51
2018-02-15T06:29:20.280Z,75.42
2018-02-15T06:30:30.388Z,75.32
2018-02-15T06:31:40.248Z,75.36
2018-02-15T06:32:50.362Z,75.23
2018-02-15T06:34:00.205Z,75.45
2018-02-15T06:35:10.343Z,75.45
2018-02-15T06:36:20.823Z,75.64
2018-02-15T06:37:30.826Z,75.36
2018-02-15T06:38:40.933Z,75.17
2018-02-15T06:39:51.108Z,74.66
2018-02-15T06:41:01.243Z,75.23
2018-02-15T06:42:11.131Z,75.6
2018-02-15T06:43:21.254Z,75.32
2018-02-15T06:44:31.390Z,75.13
2018-02-15T06:45:42.504Z,75.13
2018-02-15T06:46:52.660Z,75.6
2018-02-15T06:48:02.814Z,75.23
2018-02-15T06:49:12.916Z,75.36
2018-02-15T06:50:22.763Z,75.26
2018-02-15T06:51:32.909Z,75.07
2018-02-15T06:52:43.049Z,75.26
2018-02-15T06:53:53.195Z,75.36
2018-02-15T06:55:03.088Z,75.55
2018-02-15T06:56:13.258Z,75.45
2018-02-15T06:57:23.107Z,75.17
2018-02-15T06:58:33.224Z,75.07
2018-02-15T06:59:43.352Z,75.07
2018-02-15T07:00:53.646Z,75.07
2018-02-15T07:02:03.507Z,75.17
2018-02-15T07:03:13.650Z,74.79
2018-02-15T07:04:23.530Z,74.98
2018-02-15T07:05:33.630Z,75.07
2018-02-15T07:06:43.490Z,74.88
2018-02-15T07:07:53.638Z,75.07
2018-02-15T07:09:03.770Z,75.26
2018-02-15T07:10:13.885Z,75.36
2018-02-15T07:11:23.745Z,75.36
2018-02-15T07:12:33.978Z,75.36
2018-02-15T07:13:44.189Z,75.07
2018-02-15T07:14:54.385Z,75.17
2018-02-15T07:16:04.517Z,75.36
2018-02-15T07:17:14.629Z,75.45
2018-02-15T07:18:24.870Z,75.36
2018-02-15T07:19:35.078Z,75.26
2018-02-15T07:20:45.277Z,75.26
2018-02-15T07:21:55.167Z,75.26
2018-02-15T07:23:05.072Z,75.26
2018-02-15T07:24:15.215Z,74.88
2018-02-15T07:25:25.063Z,74.79
2018-02-15T07:26:35.175Z,74.98
2018-02-15T07:27:45.350Z,75.45
2018-02-15T07:28:55.516Z,75.55
2018-02-15T07:30:05.686Z,75.45
2018-02-15T07:31:15.819Z,75.45
2018-02-15T07:32:25.973Z,75.36
2018-02-15T07:33:36.090Z,75.36
2018-02-15T07:34:46.164Z,75.55
2018-02-15T07:35:57.338Z,75.17
2018-02-15T07:37:07.486Z,74.88
2018-02-15T07:38:17.631Z,75.07
2018-02-15T07:39:27.389Z,74.98
2018-02-15T07:40:37.769Z,74.6
2018-02-15T07:41:47.901Z,74.32
2018-02-15T07:42:58.021Z,73.94
2018-02-15T07:44:07.964Z,74.17
2018-02-15T07:45:18.106Z,73.85
2018-02-15T07:46:28.364Z,74.17
2018-02-15T07:47:38.484Z,73.85
2018-02-15T07:48:48.620Z,73.66
2018-02-15T07:49:58.742Z,73.75
2018-02-15T07:51:08.858Z,73.85
2018-02-15T07:52:18.985Z,73.85
2018-02-15T07:53:29.174Z,73.75
2018-02-15T07:54:39.303Z,73.94
2018-02-15T07:55:49.450Z,74.13
2018-02-15T07:57:00.560Z,73.94
2018-02-15T07:58:10.453Z,73.69
2018-02-15T07:59:20.311Z,73.5
2018-02-15T08:00:30.519Z,73.69
2018-02-15T08:01:40.631Z,73.79
2018-02-15T08:02:50.844Z,73.28
2018-02-15T08:04:01.017Z,73.69
2018-02-15T08:05:11.159Z,73.56
2018-02-15T08:06:21.012Z,73.47
2018-02-15T08:07:31.332Z,73.56
2018-02-15T08:08:41.475Z,73.56
2018-02-15T08:09:51.658Z,73.5
2018-02-15T08:11:01.775Z,73.79
2018-02-15T08:12:11.898Z,73.5
2018-02-15T08:13:22.006Z,73.6
2018-02-15T08:14:32.137Z,73.5
2018-02-15T08:15:43.359Z,73.75
2018-02-15T08:16:53.494Z,73.88
2018-02-15T08:18:03.593Z,73.22
2018-02-15T08:19:13.705Z,73.41
2018-02-15T08:20:23.888Z,73.5
2018-02-15T08:21:34.026Z,73.41
2018-02-15T08:22:43.906Z,73.69
2018-02-15T08:23:54.092Z,73.32
2018-02-15T08:25:04.204Z,73.13
2018-02-15T08:26:14.336Z,72.85
2018-02-15T08:27:24.485Z,73.13
2018-02-15T08:28:34.610Z,72.75
2018-02-15T08:29:44.727Z,72.28
2018-02-15T08:30:54.833Z,72.03
2018-02-15T08:32:05.054Z,71.46
2018-02-15T08:33:15.307Z,71.27
2018-02-15T08:34:25.420Z,71.17
2018-02-15T08:35:35.642Z,70.7
2018-02-15T08:36:45.762Z,70.89
2018-02-15T08:37:55.880Z,70.32
2018-02-15T08:39:06.004Z,69.7
2018-02-15T08:40:17.078Z,69.6
2018-02-15T08:41:26.992Z,69.66
2018-02-15T08:42:37.119Z,68.84
2018-02-15T08:43:48.233Z,69.51
2018-02-15T08:44:58.432Z,69.6
2018-02-15T08:46:08.832Z,69.13
2018-02-15T08:47:18.998Z,68.75
2018-02-15T08:48:29.125Z,68.08
2018-02-15T08:49:39.316Z,68.08
2018-02-15T08:50:49.580Z,68.18
2018-02-15T08:51:59.803Z,67.99
2018-02-15T08:53:09.996Z,68.08
2018-02-15T08:54:20.244Z,67.33
2018-02-15T08:55:30.513Z,67.33
2018-02-15T08:56:40.653Z,66.95
2018-02-15T08:57:50.517Z,67.24
2018-02-15T08:59:00.687Z,67.71
2018-02-15T09:00:10.819Z,67.14
2018-02-15T09:01:20.744Z,66.95
2018-02-15T09:02:30.608Z,67.71
2018-02-15T09:03:40.729Z,67.71
2018-02-15T09:04:50.354Z,67.43
2018-02-15T09:06:00.563Z,67.43
2018-02-15T09:07:10.753Z,67.61
2018-02-15T09:08:20.951Z,67.24
2018-02-15T09:09:31.083Z,67.24
2018-02-15T09:10:41.354Z,67.43
2018-02-15T09:11:51.580Z,67.43
2018-02-15T09:13:01.860Z,67.14
2018-02-15T09:14:12.008Z,66.67
2018-02-15T09:15:22.173Z,66.7
2018-02-15T09:16:32.344Z,66.41
2018-02-15T09:17:42.465Z,66.51
2018-02-15T09:18:52.644Z,66.13
2018-02-15T09:20:02.265Z,66.22
2018-02-15T09:21:12.442Z,65.94
2018-02-15T09:22:22.621Z,65.84
2018-02-15T09:23:33.760Z,65.66
2018-02-15T09:24:43.951Z,65.84
2018-02-15T09:25:53.836Z,65.47
2018-02-15T09:27:04.011Z,65.47
2018-02-15T09:28:14.168Z,65.75
2018-02-15T09:29:24.337Z,65.66
2018-02-15T09:30:34.442Z,65.37
2018-02-15T09:31:44.557Z,64.46
2018-02-15T09:32:54.716Z,64.74
2018-02-15T09:34:04.925Z,63.98
2018-02-15T09:35:15.175Z,64.55
2018-02-15T09:36:25.342Z,64.65
2018-02-15T09:37:35.479Z,64.08
2018-02-15T09:38:45.759Z,63.89
2018-02-15T09:39:55.957Z,64.08
2018-02-15T09:41:06.193Z,64.08
2018-02-15T09:42:16.350Z,63.82
2018-02-15T09:43:26.473Z,63.54
2018-02-15T09:44:36.352Z,63.26
2018-02-15T09:45:46.534Z,63.17
2018-02-15T09:46:56.745Z,62.53
2018-02-15T09:48:06.942Z,60.92
2018-02-15T09:49:16.867Z,60.63
2018-02-15T09:50:26.990Z,60.25
2018-02-15T09:51:37.138Z,59.78
2018-02-15T09:52:47.018Z,59.68
2018-02-15T09:53:57.157Z,59.59
2018-02-15T09:55:07.082Z,59.59
2018-02-15T09:56:17.215Z,59.59
2018-02-15T09:57:28.309Z,59.14
2018-02-15T09:58:38.568Z,59.43
2018-02-15T09:59:48.837Z,59.05
2018-02-15T10:00:59.031Z,58.86
2018-02-15T10:02:08.889Z,58.95
2018-02-15T10:03:18.898Z,58.86
2018-02-15T10:04:29.048Z,58.76
2018-02-15T10:05:39.208Z,58.67
2018-02-15T10:06:49.343Z,58.58
2018-02-15T10:07:59.453Z,57.62
2018-02-15T10:09:09.331Z,57.81
2018-02-15T10:10:19.492Z,57.43
2018-02-15T10:11:29.736Z,57.53
2018-02-15T10:12:39.898Z,57.31
2018-02-15T10:13:51.017Z,58.07
2018-02-15T10:15:01.176Z,57.69
2018-02-15T10:16:11.327Z,58.54
2018-02-15T10:17:21.202Z,58.45
2018-02-15T10:18:30.866Z,58.45
2018-02-15T10:19:41.027Z,58.73
2018-02-15T10:20:50.920Z,58.26
2018-02-15T10:22:01.081Z,58.45
2018-02-15T10:23:11.217Z,58.26
2018-02-15T10:24:21.357Z,57.69
2018-02-15T10:25:31.477Z,58.42
2018-02-15T10:26:42.564Z,58.89
2018-02-15T10:27:52.678Z,58.42
2018-02-15T10:29:02.861Z,58.42
2018-02-15T10:30:13.003Z,57.79
2018-02-15T10:31:23.167Z,57.95
2018-02-15T10:32:33.288Z,58.7
2018-02-15T10:33:43.401Z,58.61
2018-02-15T10:34:53.346Z,58.61
2018-02-15T10:36:03.489Z,58.7
2018-02-15T10:37:13.610Z,58.61
2018-02-15T10:38:23.515Z,58.7
2018-02-15T10:39:33.314Z,58.7
2018-02-15T10:40:43.248Z,58.7
2018-02-15T10:41:54.390Z,59.66
2018-02-15T10:43:04.528Z,59.34
2018-02-15T10:44:14.758Z,59.63
2018-02-15T10:45:24.882Z,59.63
2018-02-15T10:46:34.792Z,59.63
2018-02-15T10:47:44.701Z,60.19
2018-02-15T10:48:54.827Z,60.28
2018-02-15T10:50:04.980Z,60.57
2018-02-15T10:51:15.110Z,60.54
2018-02-15T10:52:25.358Z,60.92
2018-02-15T10:53:35.229Z,61.21
2018-02-15T10:54:45.350Z,61.77
2018-02-15T10:55:55.543Z,61.87
2018-02-15T10:57:05.337Z,62.05
2018-02-15T10:58:15.476Z,61.77
2018-02-15T10:59:26.581Z,61.68
2018-02-15T11:00:36.364Z,62.24
2018-02-15T11:01:46.718Z,62.05
2018-02-15T11:02:56.870Z,62.72
2018-02-15T11:04:07.090Z,61.96
2018-02-15T11:05:17.256Z,61.96
2018-02-15T11:06:27.468Z,62.62
2018-02-15T11:07:37.637Z,62.24
2018-02-15T11:08:47.622Z,61.87
2018-02-15T11:09:57.762Z,62.18
2018-02-15T11:11:07.930Z,62.28
2018-02-15T11:12:18.070Z,62.18
2018-02-15T11:13:27.850Z,61.8
2018-02-15T11:14:39.050Z,61.9
2018-02-15T11:15:49.325Z,61.8
2018-02-15T11:16:59.486Z,61.8
2018-02-15T11:18:09.687Z,62.08
2018-02-15T11:19:19.892Z,62.37
2018-02-15T11:20:30.022Z,62.28
2018-02-15T11:21:39.942Z,62.28
2018-02-15T11:22:51.041Z,62.08
2018-02-15T11:24:01.001Z,61.9
2018-02-15T11:25:10.889Z,61.8
2018-02-15T11:26:21.024Z,61.71
2018-02-15T11:27:31.142Z,61.8
2018-02-15T11:28:41.059Z,62.28
2018-02-15T11:29:51.216Z,62.05
2018-02-15T11:31:01.340Z,62.05
2018-02-15T11:32:11.225Z,61.96
2018-02-15T11:33:21.194Z,62.43
2018-02-15T11:34:31.115Z,62.53
2018-02-15T11:35:41.252Z,62.62
2018-02-15T11:36:51.399Z,62.62
2018-02-15T11:38:01.519Z,62.82
2018-02-15T11:39:11.667Z,62.53
2018-02-15T11:40:22.950Z,62.62
2018-02-15T11:41:33.065Z,62.62
2018-02-15T11:42:43.198Z,62.34
2018-02-15T11:43:54.290Z,62.62
2018-02-15T11:45:04.406Z,62.43
2018-02-15T11:46:15.525Z,62.53
2018-02-15T11:47:25.695Z,62.62
2018-02-15T11:48:35.832Z,62.53
2018-02-15T11:49:45.971Z,62.53
2018-02-15T11:50:56.119Z,62.72
2018-02-15T11:52:06.296Z,62.43
2018-02-15T11:53:16.176Z,62.91
2018-02-15T11:54:26.322Z,62.62
2018-02-15T11:55:36.448Z,62.62
2018-02-15T11:56:46.573Z,62.91
2018-02-15T11:57:56.173Z,62.91
2018-02-15T11:59:06.076Z,62.53
2018-02-15T12:00:16.276Z,62.72
2018-02-15T12:01:26.406Z,62.53
2018-02-15T12:02:37.534Z,63.01
2018-02-15T12:03:47.692Z,62.72
2018-02-15T12:04:57.868Z,62.62
2018-02-15T12:06:07.995Z,62.53
2018-02-15T12:07:18.219Z,62.91
2018-02-15T12:08:28.362Z,62.62
2018-02-15T12:09:38.602Z,62.62
2018-02-15T12:10:48.777Z,62.62
2018-02-15T12:11:59.032Z,63.1
2018-02-15T12:13:09.262Z,63.01
2018-02-15T12:14:19.407Z,63.29
2018-02-15T12:15:29.658Z,63.01
2018-02-15T12:16:39.806Z,63.29
2018-02-15T12:17:49.780Z,63.2
2018-02-15T12:18:59.880Z,63.39
2018-02-15T12:20:10.020Z,63.48
2018-02-15T12:21:20.266Z,63.57
2018-02-15T12:22:30.463Z,63.29
2018-02-15T12:23:40.632Z,63.57
2018-02-15T12:24:50.529Z,63.67
2018-02-15T12:26:00.733Z,63.29
2018-02-15T12:27:10.903Z,63.48
2018-02-15T12:28:20.924Z,63.57
2018-02-15T12:29:30.797Z,63.57
2018-02-15T12:30:40.662Z,63.57
2018-02-15T12:31:51.866Z,63.48
2018-02-15T12:33:02.112Z,63.48
2018-02-15T12:34:12.332Z,63.76
2018-02-15T12:35:22.520Z,63.29
2018-02-15T12:36:32.752Z,63.76
2018-02-15T12:37:42.666Z,63.85
2018-02-15T12:38:52.781Z,63.95
2018-02-15T12:40:02.925Z,63.39
2018-02-15T12:41:13.071Z,63.48
2018-02-15T12:42:23.312Z,63.29
2018-02-15T12:43:33.458Z,63.57
2018-02-15T12:44:43.797Z,63.67
2018-02-15T12:45:54.023Z,63.57
2018-02-15T12:47:04.262Z,63.85
2018-02-15T12:48:14.487Z,63.48
2018-02-15T12:49:24.604Z,63.2
2018-02-15T12:50:34.718Z,63.2
2018-02-15T12:51:45.837Z,63.1
2018-02-15T12:52:55.952Z,63.39
2018-02-15T12:54:06.087Z,63.29
2018-02-15T12:55:16.379Z,63.2
2018-02-15T12:56:26.603Z,63.29
2018-02-15T12:57:36.746Z,63.1
2018-02-15T12:58:46.942Z,63.1
2018-02-15T12:59:57.134Z,63.1
2018-02-15T13:01:07.337Z,62.62
2018-02-15T13:02:17.583Z,63.01
2018-02-15T13:03:27.803Z,62.53
2018-02-15T13:04:38.041Z,62.62
2018-02-15T13:05:48.274Z,62.82
2018-02-15T13:06:58.048Z,62.43
2018-02-15T13:08:08.217Z,62.72
2018-02-15T13:09:18.449Z,62.53
2018-02-15T13:10:28.647Z,62.62
2018-02-15T13:11:38.792Z,62.43
2018-02-15T13:12:49.168Z,63.2
2018-02-15T13:13:59.099Z,63.29
2018-02-15T13:15:09.242Z,63.2
2018-02-15T13:16:19.361Z,63.67
2018-02-15T13:17:29.484Z,63.57
2018-02-15T13:18:39.659Z,63.57
2018-02-15T13:19:49.789Z,64.14
2018-02-15T13:21:00.062Z,63.85
2018-02-15T13:22:10.245Z,64.04
2018-02-15T13:23:20.416Z,63.85
2018-02-15T13:24:30.908Z,64.23
2018-02-15T13:25:41.150Z,63.85
2018-02-15T13:26:51.300Z,64.42
2018-02-15T13:28:01.528Z,63.85
2018-02-15T13:29:11.761Z,63.85
2018-02-15T13:30:22.039Z,64.33
2018-02-15T13:31:32.180Z,64.23
2018-02-15T13:32:42.494Z,64.23
2018-02-15T13:33:52.669Z,64.61
2018-02-15T13:35:02.817Z,65.56
2018-02-15T13:36:13.059Z,66.13
2018-02-15T13:37:23.303Z,66.03
2018-02-15T13:38:33.457Z,66.8
2018-02-15T13:39:43.645Z,66.7
2018-02-15T13:40:53.855Z,66.8
2018-02-15T13:42:04.014Z,66.7
2018-02-15T13:43:14.330Z,66.47
2018-02-15T13:44:24.694Z,67.08
2018-02-15T13:45:34.961Z,67.14
2018-02-15T13:46:45.193Z,67.33
2018-02-15T13:47:56.304Z,67.43
2018-02-15T13:49:06.493Z,68.18
2018-02-15T13:50:16.753Z,68.75
2018-02-15T13:51:26.973Z,68.75
2018-02-15T13:52:36.927Z,69.03
2018-02-15T13:53:47.038Z,69.41
2018-02-15T13:54:57.164Z,70.17
2018-02-15T13:56:07.423Z,70.55
2018-02-15T13:57:17.592Z,70.45
2018-02-15T13:58:27.802Z,71.02
2018-02-15T13:59:38.018Z,71.02
2018-02-15T14:00:48.174Z,71.02
2018-02-15T14:01:58.377Z,71.31
2018-02-15T14:03:08.232Z,71.5
2018-02-15T14:04:18.405Z,71.21
2018-02-15T14:05:28.297Z,71.97
2018-02-15T14:06:38.453Z,71.97
2018-02-15T14:07:48.699Z,71.12
2018-02-15T14:08:58.868Z,71.69
2018-02-15T14:10:09.068Z,70.93
2018-02-15T14:11:18.938Z,71.31
2018-02-15T14:12:29.790Z,71.4
2018-02-15T14:13:39.670Z,71.21
2018-02-15T14:14:49.539Z,71.25
2018-02-15T14:15:59.683Z,70.87
2018-02-15T14:17:09.813Z,70.58
2018-02-15T14:18:20.010Z,70.39
2018-02-15T14:19:30.177Z,70.3
2018-02-15T14:20:40.407Z,70.39
2018-02-15T14:21:50.572Z,70.49
2018-02-15T14:23:00.737Z,70.49
2018-02-15T14:24:10.877Z,70.49
2018-02-15T14:25:21.005Z,70.58
2018-02-15T14:26:31.352Z,70.68
2018-02-15T14:27:41.517Z,70.11
2018-02-15T14:28:51.384Z,70.39
2018-02-15T14:30:01.521Z,70.2
2018-02-15T14:31:11.685Z,70.11
2018-02-15T14:32:21.816Z,70.58
2018-02-15T14:33:31.702Z,70.49
2018-02-15T14:34:41.829Z,70.49
2018-02-15T14:35:52.057Z,70.45
2018-02-15T14:37:03.159Z,70.58
2018-02-15T14:38:13.333Z,70.26
2018-02-15T14:39:23.581Z,70.17
2018-02-15T14:40:33.363Z,70.58
2018-02-15T14:41:43.539Z,70.49
2018-02-15T14:42:53.418Z,71.02
2018-02-15T14:44:03.553Z,71.12
2018-02-15T14:45:13.709Z,71.88
2018-02-15T14:46:23.649Z,71.78
2018-02-15T14:47:33.547Z,71.78
2018-02-15T14:48:43.951Z,72.16
2018-02-15T14:49:54.085Z,72.25
2018-02-15T14:51:04.303Z,72.53
2018-02-15T14:52:14.564Z,72.63
2018-02-15T14:53:24.734Z,72.92
2018-02-15T14:54:34.885Z,73.3
2018-02-15T14:55:45.308Z,73.2
2018-02-15T14:56:55.236Z,73.68
2018-02-15T14:58:05.123Z,73.49
2018-02-15T14:59:15.350Z,74.24
2018-02-15T15:00:25.752Z,74.52
2018-02-15T15:01:36.892Z,75.19
2018-02-15T15:02:47.001Z,75.57
2018-02-15T15:03:57.135Z,75.57
2018-02-15T15:05:07.264Z,75.38
2018-02-15T15:06:18.401Z,76.04
2018-02-15T15:07:28.642Z,76.42